Time;durP1;ratioP1;P1;durP2;ratioP2;P2;SDS_P1;SDS_P2;PMS_P1;PMS_P2;Temp;Humidity;BMP_temperature;BMP_pressure;BME280_temperature;BME280_humidity;BME280_pressure;Samples;Min_cycle;Max_cycle;Signal;HPM_P1;HPM_P2
2022/11/04 00:01:46;;;;;;;2.92;0.10;;;10.00;99.90;;;;;;5030484;28;20102;-72
2022/11/04 00:04:14;;;;;;;1.75;0.30;;;10.10;99.90;;;;;;5031957;28;20048;-72
2022/11/04 00:06:40;;;;;;;2.67;0.40;;;10.10;99.90;;;;;;5029526;28;20048;-72
2022/11/04 00:09:08;;;;;;;3.30;0.50;;;10.10;99.90;;;;;;5013429;28;20040;-72
2022/11/04 00:14:19;;;;;;;2.15;0.10;;;10.10;99.90;;;;;;5046201;28;20089;-72
2022/11/04 00:28:41;;;;;;;3.90;0.10;;;10.10;99.90;;;;;;5031982;28;20358;-72
2022/11/04 00:30:27;;;;;;;3.53;0.30;;;10.20;99.90;;;;;;5044770;28;20040;-72
2022/11/04 00:35:37;;;;;;;3.00;0.20;;;10.20;99.90;;;;;;5041518;28;20088;-72
2022/11/04 00:38:02;;;;;;;4.53;0.10;;;10.20;99.90;;;;;;5029813;28;20086;-72
2022/11/04 00:40:28;;;;;;;4.50;0.20;;;10.20;99.90;;;;;;5013156;28;20059;-72
2022/11/04 00:42:54;;;;;;;2.83;0.20;;;10.10;99.90;;;;;;5014158;28;20056;-72
2022/11/04 00:45:19;;;;;;;4.97;0.30;;;10.20;99.90;;;;;;5046253;28;20044;-72
2022/11/04 00:47:45;;;;;;;4.70;0.40;;;10.20;99.90;;;;;;5013409;28;20127;-72
2022/11/04 00:50:11;;;;;;;5.53;0.30;;;10.20;99.90;;;;;;5013128;28;20075;-72
2022/11/04 00:52:37;;;;;;;5.63;0.27;;;10.20;99.90;;;;;;5029870;28;20047;-72
2022/11/04 00:55:03;;;;;;;3.90;0.20;;;10.20;99.90;;;;;;5007070;28;20045;-72
2022/11/04 00:57:29;;;;;;;6.43;0.30;;;10.20;99.90;;;;;;5039276;28;20495;-72
2022/11/04 00:59:54;;;;;;;4.43;0.20;;;10.10;99.90;;;;;;5028668;28;20290;-72
2022/11/04 01:02:20;;;;;;;4.53;0.40;;;10.10;99.90;;;;;;5019058;28;20040;-72
2022/11/04 01:04:46;;;;;;;4.23;0.20;;;10.10;99.90;;;;;;5040052;28;20040;-72
2022/11/04 01:07:12;;;;;;;7.03;0.30;;;10.10;99.90;;;;;;5016102;28;20120;-72
2022/11/04 01:09:38;;;;;;;4.37;0.30;;;10.10;99.90;;;;;;5044432;28;20717;-72
2022/11/04 01:12:04;;;;;;;4.60;0.43;;;10.10;99.90;;;;;;5029371;28;20041;-72
2022/11/04 01:14:29;;;;;;;3.03;0.37;;;10.10;99.90;;;;;;5028757;28;20056;-72
2022/11/04 01:16:55;;;;;;;3.73;0.30;;;10.00;99.90;;;;;;5029066;28;20067;-72
2022/11/04 01:19:21;;;;;;;2.30;0.30;;;10.00;99.90;;;;;;5029141;28;20688;-72
2022/11/04 01:21:51;;;;;;;3.43;0.23;;;10.00;99.90;;;;;;5029697;28;20048;-72
2022/11/04 01:24:18;;;;;;;2.80;0.23;;;10.00;99.90;;;;;;5049420;28;20923;-72
2022/11/04 01:26:44;;;;;;;3.83;0.20;;;10.00;99.90;;;;;;5031487;28;20287;-72
2022/11/04 01:29:10;;;;;;;4.93;0.27;;;9.90;99.90;;;;;;5031823;28;20287;-72
2022/11/04 01:31:35;;;;;;;6.80;0.33;;;9.90;99.90;;;;;;5032296;28;20051;-72
2022/11/04 01:34:01;;;;;;;3.77;0.17;;;9.90;99.90;;;;;;5031621;28;20144;-72
2022/11/04 01:36:27;;;;;;;6.10;0.60;;;9.90;99.90;;;;;;5048435;28;20044;-72
2022/11/04 01:38:56;;;;;;;5.80;0.30;;;10.00;99.90;;;;;;5032579;28;20474;-72
2022/11/04 01:41:25;;;;;;;3.67;0.30;;;10.00;99.90;;;;;;5032161;28;20397;-72
2022/11/04 01:44:01;;;;;;;3.92;0.20;;;10.00;99.90;;;;;;5032863;28;20307;-72
2022/11/04 01:46:44;;;;;;;3.25;0.20;;;10.00;99.90;;;;;;5046622;28;20044;-72
2022/11/04 01:49:28;;;;;;;8.00;0.33;;;10.00;99.90;;;;;;5048409;28;20033;-72
2022/11/04 01:52:01;;;;;;;5.47;0.20;;;10.00;99.90;;;;;;5047597;28;20646;-72
2022/11/04 01:54:28;;;;;;;2.70;0.20;;;10.00;99.90;;;;;;5058818;28;20051;-72
2022/11/04 01:56:54;;;;;;;3.53;0.40;;;10.00;99.90;;;;;;5000847;28;20075;-72
2022/11/04 01:59:26;;;;;;;4.67;0.20;;;10.00;99.90;;;;;;5029047;28;20044;-72
2022/11/04 02:01:53;;;;;;;3.53;0.43;;;10.00;99.90;;;;;;5051434;28;20286;-72
2022/11/04 02:04:25;;;;;;;7.00;0.23;;;10.00;99.90;;;;;;5019576;28;20045;-73
2022/11/04 02:07:00;;;;;;;5.03;0.47;;;10.00;99.90;;;;;;5033380;28;20287;-73
2022/11/04 02:09:30;;;;;;;4.20;0.30;;;10.00;99.90;;;;;;5031314;28;20283;-73
2022/11/04 02:14:42;;;;;;;4.32;0.30;;;10.00;99.90;;;;;;5043503;28;20289;-73
2022/11/04 02:17:16;;;;;;;5.80;0.43;;;10.00;99.90;;;;;;5046552;28;20040;-73
2022/11/04 02:20:07;;;;;;;4.85;0.30;;;10.00;99.90;;;;;;5037938;28;20706;-72
2022/11/04 02:22:39;;;;;;;4.17;0.80;;;10.00;99.90;;;;;;5048911;28;20438;-72
2022/11/04 02:25:19;;;;;;;6.13;0.40;;;10.00;99.90;;;;;;5047570;28;20306;-72
2022/11/04 02:28:07;;;;;;;4.40;0.30;;;10.00;99.90;;;;;;5047202;28;20555;-72
2022/11/04 02:30:46;;;;;;;4.20;0.40;;;10.00;99.90;;;;;;5032041;28;20086;-72
2022/11/04 02:33:33;;;;;;;7.50;0.53;;;9.90;99.90;;;;;;5031039;28;20272;-72
2022/11/04 02:36:22;;;;;;;9.03;0.50;;;9.90;99.90;;;;;;5045945;28;20766;-72
2022/11/04 02:39:03;;;;;;;2.67;0.20;;;9.90;99.90;;;;;;5046095;28;20278;-72
2022/11/04 02:41:47;;;;;;;4.47;0.50;;;9.90;99.90;;;;;;5047271;28;20128;-72
2022/11/04 02:44:29;;;;;;;5.25;0.32;;;9.90;99.90;;;;;;5038477;28;20282;-72
2022/11/04 02:47:06;;;;;;;3.77;0.30;;;9.90;99.90;;;;;;5047999;28;20133;-72
2022/11/04 02:49:38;;;;;;;4.00;0.20;;;9.80;99.90;;;;;;5031813;28;20306;-72
2022/11/04 02:52:08;;;;;;;5.50;0.40;;;9.80;99.90;;;;;;5047052;28;20271;-72
2022/11/04 02:54:59;;;;;;;3.93;0.30;;;9.80;99.90;;;;;;5026907;28;20550;-72
2022/11/04 02:57:29;;;;;;;6.47;0.40;;;9.80;99.90;;;;;;5030638;28;20278;-72
2022/11/04 03:00:11;;;;;;;7.18;0.60;;;9.80;99.90;;;;;;5047664;28;20286;-72
2022/11/04 03:02:39;;;;;;;5.13;0.50;;;9.80;99.90;;;;;;5048863;28;20067;-72
2022/11/04 03:05:10;;;;;;;6.13;0.43;;;9.80;99.90;;;;;;5045439;28;20640;-72
2022/11/04 03:07:40;;;;;;;8.23;0.43;;;9.70;99.90;;;;;;5045849;28;20305;-72
2022/11/04 03:10:19;;;;;;;6.07;0.60;;;9.70;99.90;;;;;;5048074;28;20496;-72
2022/11/04 03:12:58;;;;;;;4.67;0.50;;;9.70;99.90;;;;;;5046890;28;20282;-72
2022/11/04 03:15:28;;;;;;;4.72;0.40;;;9.80;99.90;;;;;;5046623;28;20326;-73
2022/11/04 03:18:03;;;;;;;4.25;0.28;;;9.70;99.90;;;;;;5027432;28;20329;-73
2022/11/04 03:20:30;;;;;;;4.85;0.45;;;9.70;99.90;;;;;;5029410;28;20040;-73
2022/11/04 03:22:58;;;;;;;6.82;0.32;;;9.70;99.90;;;;;;5030375;28;20068;-73
2022/11/04 03:25:39;;;;;;;5.85;0.35;;;9.60;99.90;;;;;;5029517;28;20080;-73
2022/11/04 03:28:24;;;;;;;3.78;0.40;;;9.60;99.90;;;;;;5031028;28;20098;-74
2022/11/04 03:30:55;;;;;;;3.25;0.30;;;9.50;99.90;;;;;;5031237;28;20450;-73
2022/11/04 03:33:40;;;;;;;3.58;0.30;;;9.50;99.90;;;;;;5028839;28;20041;-73
2022/11/04 03:36:07;;;;;;;4.72;0.20;;;9.40;99.90;;;;;;5037171;28;20052;-73
2022/11/04 03:38:34;;;;;;;4.25;0.30;;;9.40;99.90;;;;;;5029159;28;20052;-73
2022/11/04 03:41:03;;;;;;;4.60;0.40;;;9.30;99.90;;;;;;5032578;28;20105;-73
2022/11/04 03:43:30;;;;;;;2.78;0.20;;;9.30;99.90;;;;;;5046817;28;20400;-73
2022/11/04 03:45:56;;;;;;;2.50;0.20;;;9.30;99.90;;;;;;5045198;28;20055;-73
2022/11/04 03:48:22;;;;;;;2.00;0.20;;;9.20;99.90;;;;;;5013958;28;20384;-73
2022/11/04 03:50:49;;;;;;;2.65;0.82;;;9.20;99.90;;;;;;5045617;28;20048;-73
2022/11/04 03:53:24;;;;;;;2.90;0.20;;;9.20;99.90;;;;;;5029942;28;20036;-73
2022/11/04 03:56:26;;;;;;;2.60;0.20;;;9.20;99.90;;;;;;5029187;28;20051;-73
2022/11/04 03:59:20;;;;;;;1.40;0.20;;;9.20;99.90;;;;;;5017346;28;20520;-72
2022/11/04 04:01:57;;;;;;;2.28;0.20;;;9.20;99.90;;;;;;5036643;28;20101;-72
2022/11/04 04:04:37;;;;;;;1.55;0.10;;;9.20;99.90;;;;;;5050590;28;20051;-72
2022/11/04 04:07:33;;;;;;;4.15;0.20;;;9.10;99.90;;;;;;5030343;28;20047;-72
2022/11/04 04:13:09;;;;;;;3.63;0.20;;;9.10;99.90;;;;;;5047229;28;20044;-73
2022/11/04 04:16:01;;;;;;;1.92;0.20;;;9.00;99.90;;;;;;5043941;28;20044;-73
2022/11/04 04:18:41;;;;;;;3.85;0.10;;;9.00;99.90;;;;;;5020849;28;20040;-73
2022/11/04 04:21:12;;;;;;;4.65;0.22;;;9.00;99.90;;;;;;5026898;28;20054;-72
2022/11/04 04:29:10;;;;;;;3.35;0.40;;;8.90;99.90;;;;;;5045831;28;20511;-72
2022/11/04 04:31:51;;;;;;;5.15;0.30;;;9.00;99.90;;;;;;5030289;28;20043;-72
2022/11/04 04:34:26;;;;;;;5.10;0.30;;;8.90;99.90;;;;;;5019289;28;20037;-73
2022/11/04 04:37:04;;;;;;;2.92;0.30;;;8.90;99.90;;;;;;5046608;28;20266;-72
2022/11/04 04:45:09;;;;;;;4.35;0.90;;;8.90;99.90;;;;;;5030912;28;20048;-72
2022/11/04 04:47:41;;;;;;;5.00;0.30;;;8.90;99.90;;;;;;5029123;28;20059;-72
2022/11/04 04:50:09;;;;;;;8.40;0.90;;;8.90;99.90;;;;;;5028095;28;20048;-72
2022/11/04 04:52:41;;;;;;;5.70;0.30;;;8.90;99.90;;;;;;5029799;28;20155;-72
2022/11/04 04:55:07;;;;;;;4.07;0.40;;;8.90;99.90;;;;;;5039768;28;20041;-72
2022/11/04 04:57:34;;;;;;;2.95;0.20;;;8.90;99.90;;;;;;5042524;28;20535;-72
2022/11/04 04:59:59;;;;;;;4.10;0.43;;;8.80;99.90;;;;;;5046753;28;20059;-72
2022/11/04 05:02:25;;;;;;;4.40;0.37;;;8.80;99.90;;;;;;5046490;28;20036;-72
2022/11/04 05:04:51;;;;;;;5.33;0.40;;;8.80;99.90;;;;;;5048668;28;20400;-72
2022/11/04 05:07:17;;;;;;;4.07;0.37;;;8.70;99.90;;;;;;5033665;28;20435;-72
2022/11/04 05:09:42;;;;;;;2.60;0.30;;;8.70;99.90;;;;;;5033564;28;20115;-72
2022/11/04 05:12:08;;;;;;;5.27;0.77;;;8.70;99.90;;;;;;5017732;28;20049;-72
2022/11/04 05:14:35;;;;;;;1.00;0.30;;;8.60;99.90;;;;;;5016176;28;20244;-72
2022/11/04 05:17:00;;;;;;;6.60;0.70;;;8.60;99.90;;;;;;5033848;28;20075;-72
2022/11/04 05:19:26;;;;;;;4.47;0.20;;;8.50;99.90;;;;;;5017494;28;20508;-72
2022/11/04 05:21:52;;;;;;;6.60;0.50;;;8.40;99.90;;;;;;5033030;28;20036;-72
2022/11/04 05:24:18;;;;;;;5.13;0.30;;;8.40;99.90;;;;;;5030233;28;20099;-72
2022/11/04 05:26:43;;;;;;;4.50;0.40;;;8.30;99.90;;;;;;5032365;28;20496;-72
2022/11/04 05:29:11;;;;;;;2.57;0.60;;;8.20;99.90;;;;;;5032515;28;20124;-72
2022/11/04 05:31:37;;;;;;;3.75;0.20;;;8.20;99.90;;;;;;5032953;28;20040;-72
2022/11/04 05:34:04;;;;;;;5.97;0.47;;;8.10;99.90;;;;;;5016900;28;20404;-72
2022/11/04 05:36:31;;;;;;;4.78;0.40;;;8.10;99.90;;;;;;5016661;28;20683;-72
2022/11/04 05:38:57;;;;;;;5.07;0.38;;;8.00;99.90;;;;;;5032006;28;20044;-72
2022/11/04 05:41:26;;;;;;;4.83;0.40;;;7.90;99.90;;;;;;5033220;28;20504;-72
2022/11/04 05:43:57;;;;;;;3.00;0.32;;;7.90;99.90;;;;;;5019899;28;20043;-72
2022/11/04 05:46:24;;;;;;;3.55;0.30;;;7.80;99.90;;;;;;5052604;28;20076;-72
2022/11/04 05:48:50;;;;;;;3.08;0.30;;;7.80;99.90;;;;;;5032781;28;20026;-72
2022/11/04 05:51:22;;;;;;;6.82;0.57;;;7.80;99.90;;;;;;5049540;28;20129;-72
2022/11/04 05:53:48;;;;;;;3.95;0.30;;;7.80;99.90;;;;;;5024557;28;20037;-72
2022/11/04 05:56:14;;;;;;;5.07;0.47;;;7.80;99.90;;;;;;5029306;28;20102;-72
2022/11/04 05:58:39;;;;;;;7.07;1.03;;;7.90;99.90;;;;;;5032617;28;20040;-72
2022/11/04 06:01:22;;;;;;;5.73;0.60;;;7.90;99.90;;;;;;5044857;28;20083;-72
2022/11/04 06:03:48;;;;;;;2.72;0.20;;;8.00;99.90;;;;;;5052037;28;20052;-72
2022/11/04 06:06:13;;;;;;;9.97;0.57;;;8.00;99.90;;;;;;5011478;28;20553;-72
2022/11/04 06:08:39;;;;;;;4.83;0.53;;;8.00;99.90;;;;;;5036347;28;20512;-72
2022/11/04 06:11:05;;;;;;;3.20;0.37;;;8.00;99.90;;;;;;5030697;28;20058;-72
2022/11/04 06:13:30;;;;;;;6.17;0.90;;;8.10;99.90;;;;;;5032584;28;20052;-72
2022/11/04 06:15:56;;;;;;;4.00;0.67;;;8.10;99.90;;;;;;5030194;28;20238;-72
2022/11/04 06:18:22;;;;;;;4.57;0.60;;;8.10;99.90;;;;;;5031855;28;20464;-72
2022/11/04 06:20:48;;;;;;;4.63;0.70;;;8.00;99.90;;;;;;5029144;28;20036;-72
2022/11/04 06:23:13;;;;;;;3.63;0.30;;;8.00;99.90;;;;;;5032353;28;20052;-72
2022/11/04 06:25:39;;;;;;;4.10;0.60;;;8.00;99.90;;;;;;5027001;28;20448;-72
2022/11/04 06:28:05;;;;;;;3.90;0.40;;;8.00;99.90;;;;;;5056077;28;20036;-72
2022/11/04 06:30:31;;;;;;;5.50;0.67;;;8.00;99.90;;;;;;5056968;28;20081;-72
2022/11/04 06:32:57;;;;;;;5.23;0.80;;;7.90;99.90;;;;;;5016872;28;20041;-72
2022/11/04 06:35:22;;;;;;;1.93;0.30;;;7.80;99.90;;;;;;5048113;28;20040;-72
2022/11/04 06:37:48;;;;;;;6.33;0.40;;;7.70;99.90;;;;;;5015068;28;20047;-72
2022/11/04 06:40:14;;;;;;;3.87;0.40;;;7.70;99.90;;;;;;5030041;28;20385;-72
2022/11/04 06:42:41;;;;;;;4.10;0.87;;;7.60;99.90;;;;;;5016750;28;20044;-72
2022/11/04 06:45:08;;;;;;;1.27;0.35;;;7.60;99.90;;;;;;5027877;28;20622;-72
2022/11/04 06:47:34;;;;;;;4.28;0.70;;;7.50;99.90;;;;;;5031294;28;20062;-72
2022/11/04 06:50:00;;;;;;;3.63;0.50;;;7.50;99.90;;;;;;5016006;28;20042;-72
2022/11/04 06:52:26;;;;;;;4.35;0.60;;;7.50;99.90;;;;;;5032738;28;20041;-72
2022/11/04 06:54:52;;;;;;;5.07;0.60;;;7.40;99.90;;;;;;5031001;28;20044;-72
2022/11/04 06:57:17;;;;;;;4.47;0.53;;;7.40;99.90;;;;;;5031728;28;20052;-72
2022/11/04 06:59:43;;;;;;;4.17;1.00;;;7.40;99.90;;;;;;5021570;28;20481;-72
2022/11/04 07:02:10;;;;;;;3.50;0.40;;;7.40;99.90;;;;;;5050557;28;20435;-72
2022/11/04 07:04:36;;;;;;;3.75;0.80;;;7.40;99.90;;;;;;5031477;28;20064;-72
2022/11/04 07:07:02;;;;;;;5.68;0.75;;;7.40;99.90;;;;;;5032202;28;20044;-72
2022/11/04 07:09:28;;;;;;;2.60;0.60;;;7.40;99.90;;;;;;5030736;28;20036;-72
2022/11/04 07:11:53;;;;;;;3.67;0.30;;;7.40;99.90;;;;;;5031888;28;20036;-72
2022/11/04 07:14:19;;;;;;;2.23;0.50;;;7.40;99.90;;;;;;5031123;28;20638;-72
2022/11/04 07:16:48;;;;;;;2.60;0.50;;;7.40;99.90;;;;;;5048630;28;20048;-72
2022/11/04 07:19:13;;;;;;;5.15;0.55;;;7.50;99.90;;;;;;5031670;28;20169;-72
2022/11/04 07:21:39;;;;;;;1.43;0.57;;;7.50;99.90;;;;;;5031688;28;20611;-72
2022/11/04 07:24:06;;;;;;;6.10;0.60;;;7.50;99.90;;;;;;5014464;28;20415;-72
2022/11/04 07:26:31;;;;;;;8.10;1.38;;;7.60;99.90;;;;;;5015274;28;20048;-72
2022/11/04 07:28:59;;;;;;;7.27;0.93;;;7.60;99.90;;;;;;5031528;28;20589;-72
2022/11/04 07:31:25;;;;;;;4.45;0.75;;;7.70;99.90;;;;;;5015271;28;20523;-72
2022/11/04 07:33:52;;;;;;;8.57;0.98;;;7.70;99.90;;;;;;5014652;28;20036;-72
2022/11/04 07:36:18;;;;;;;7.15;1.10;;;7.80;99.90;;;;;;5031121;28;20064;-72
2022/11/04 07:38:45;;;;;;;7.00;1.20;;;7.80;99.90;;;;;;5011500;28;20048;-72
2022/11/04 07:41:11;;;;;;;3.78;0.82;;;7.80;99.90;;;;;;5015870;28;20082;-72
2022/11/04 07:43:37;;;;;;;4.18;0.77;;;7.80;99.90;;;;;;5030287;28;20048;-72
2022/11/04 07:46:11;;;;;;;3.47;0.90;;;7.80;99.90;;;;;;5046920;28;20044;-72
2022/11/04 07:48:38;;;;;;;5.65;0.82;;;7.90;99.90;;;;;;5030108;28;20114;-72
2022/11/04 07:51:05;;;;;;;2.95;1.00;;;7.90;99.90;;;;;;5045015;28;20598;-72
2022/11/04 07:53:32;;;;;;;6.05;0.93;;;7.90;99.90;;;;;;5042474;28;20242;-72
2022/11/04 07:55:58;;;;;;;7.00;1.30;;;8.00;99.90;;;;;;5027400;28;20492;-72
2022/11/04 07:58:24;;;;;;;3.63;0.80;;;8.00;99.90;;;;;;5030916;28;20353;-72
2022/11/04 08:00:50;;;;;;;3.20;0.50;;;8.10;99.90;;;;;;5014773;28;20044;-72
2022/11/04 08:03:16;;;;;;;3.23;0.60;;;8.10;99.90;;;;;;5028424;28;20040;-72
2022/11/04 08:05:42;;;;;;;3.93;0.73;;;8.20;99.90;;;;;;5044311;28;20082;-72
2022/11/04 08:08:07;;;;;;;2.57;0.77;;;8.20;99.90;;;;;;5027383;28;20037;-72
2022/11/04 08:10:33;;;;;;;1.90;0.60;;;8.30;99.90;;;;;;5030750;28;20402;-73
2022/11/04 08:12:59;;;;;;;5.50;0.70;;;8.30;99.90;;;;;;5045648;28;20089;-72
2022/11/04 08:15:25;;;;;;;5.23;0.93;;;8.30;99.90;;;;;;5044906;28;20646;-72
2022/11/04 08:17:50;;;;;;;4.43;0.70;;;8.40;99.90;;;;;;5027687;28;20124;-72
2022/11/04 08:20:16;;;;;;;3.70;1.03;;;8.40;99.90;;;;;;5030517;28;20037;-72
2022/11/04 08:22:42;;;;;;;2.80;0.70;;;8.40;99.90;;;;;;5009982;28;20097;-72
2022/11/04 08:25:11;;;;;;;6.00;0.90;;;8.50;99.90;;;;;;5027631;28;20049;-72
2022/11/04 08:27:36;;;;;;;6.90;1.10;;;8.60;99.90;;;;;;5030466;28;20036;-72
2022/11/04 08:30:02;;;;;;;2.37;0.70;;;8.60;99.90;;;;;;5026790;28;20036;-72
2022/11/04 08:32:28;;;;;;;4.53;0.80;;;8.70;99.90;;;;;;5011237;28;20441;-72
2022/11/04 08:34:54;;;;;;;3.57;1.17;;;8.80;99.90;;;;;;5026225;28;20242;-72
2022/11/04 08:37:19;;;;;;;5.90;1.30;;;8.80;99.90;;;;;;5045035;28;20044;-73
2022/11/04 08:39:45;;;;;;;5.27;1.23;;;8.90;99.90;;;;;;5014242;28;20051;-74
2022/11/04 08:42:11;;;;;;;4.77;1.37;;;9.00;99.90;;;;;;5011948;28;20128;-73
2022/11/04 08:44:38;;;;;;;5.00;1.00;;;9.20;99.90;;;;;;5030454;28;20048;-73
2022/11/04 08:47:04;;;;;;;3.28;0.93;;;9.40;99.90;;;;;;4996355;28;20322;-72
2022/11/04 08:49:30;;;;;;;3.77;1.00;;;9.60;99.90;;;;;;5029671;28;20040;-73
2022/11/04 08:51:58;;;;;;;8.33;1.20;;;9.90;99.90;;;;;;5009812;28;20441;-73
2022/11/04 08:54:25;;;;;;;6.10;0.98;;;10.20;99.90;;;;;;5046416;28;20241;-73
2022/11/04 08:56:52;;;;;;;4.88;0.80;;;10.40;99.90;;;;;;5043798;28;20485;-73
2022/11/04 08:59:18;;;;;;;4.90;0.90;;;10.60;99.90;;;;;;5041230;28;20044;-73
2022/11/04 09:01:44;;;;;;;5.63;0.90;;;10.60;99.90;;;;;;5020163;28;20341;-73
2022/11/04 09:04:11;;;;;;;3.77;1.27;;;10.60;99.90;;;;;;5030394;28;20274;-73
2022/11/04 09:06:39;;;;;;;2.83;0.60;;;10.50;99.90;;;;;;5006815;28;20510;-73
2022/11/04 09:09:07;;;;;;;3.20;0.70;;;10.40;99.90;;;;;;5017775;28;20382;-73
2022/11/04 09:11:37;;;;;;;7.83;1.10;;;10.40;99.90;;;;;;5037095;28;20311;-73
2022/11/04 09:14:03;;;;;;;3.00;0.80;;;10.30;99.90;;;;;;5025922;28;20345;-72
2022/11/04 09:16:30;;;;;;;1.97;0.83;;;10.30;99.90;;;;;;5026689;28;20647;-74
2022/11/04 09:18:57;;;;;;;1.90;0.70;;;10.20;99.90;;;;;;5043199;28;20940;-73
2022/11/04 09:21:24;;;;;;;4.73;0.67;;;10.10;99.90;;;;;;5041078;28;20732;-73
2022/11/04 09:23:50;;;;;;;4.23;0.83;;;10.00;99.90;;;;;;5040262;28;20306;-74
2022/11/04 09:26:16;;;;;;;4.60;1.40;;;10.00;99.90;;;;;;5025678;28;20295;-74
2022/11/04 09:28:42;;;;;;;4.20;1.00;;;9.90;99.90;;;;;;5025889;28;20492;-74
2022/11/04 09:31:16;;;;;;;5.40;0.67;;;10.00;99.90;;;;;;5021575;28;20287;-74
2022/11/04 09:33:42;;;;;;;5.60;0.63;;;10.10;99.90;;;;;;5023716;28;20358;-73
2022/11/04 09:36:09;;;;;;;5.07;0.80;;;10.20;99.90;;;;;;5041718;28;20366;-73
2022/11/04 09:38:36;;;;;;;4.50;0.80;;;10.30;99.90;;;;;;5037511;28;21053;-73
2022/11/04 09:41:09;;;;;;;5.50;1.17;;;10.50;99.90;;;;;;5022796;28;20283;-74
2022/11/04 09:43:59;;;;;;;2.13;0.63;;;10.60;99.90;;;;;;5027806;28;20286;-73
2022/11/04 09:46:26;;;;;;;3.17;0.50;;;10.80;99.90;;;;;;5030546;28;20306;-73
2022/11/04 09:48:55;;;;;;;3.50;0.37;;;10.90;99.90;;;;;;5032397;28;20889;-73
2022/11/04 09:51:25;;;;;;;4.47;0.30;;;11.10;99.90;;;;;;5032039;28;20863;-74
2022/11/04 09:54:07;;;;;;;3.17;0.47;;;11.10;99.90;;;;;;5048476;28;20293;-74
2022/11/04 09:56:41;;;;;;;2.93;0.40;;;11.10;99.90;;;;;;5063244;28;20286;-73
2022/11/04 09:59:13;;;;;;;3.87;0.30;;;11.10;99.90;;;;;;5032689;28;20425;-72
2022/11/04 10:02:10;;;;;;;3.37;0.30;;;11.10;99.90;;;;;;5032884;28;20390;-73
2022/11/04 10:04:59;;;;;;;3.13;0.27;;;11.20;99.90;;;;;;5031677;28;20302;-72
2022/11/04 10:07:43;;;;;;;3.40;0.70;;;11.20;99.90;;;;;;5048701;28;20286;-73
2022/11/04 10:10:44;;;;;;;3.47;0.43;;;11.20;99.90;;;;;;5040035;28;20658;-73
2022/11/04 10:13:19;;;;;;;5.33;0.80;;;11.30;99.90;;;;;;5050136;28;20703;-73
2022/11/04 10:15:59;;;;;;;3.95;0.50;;;11.30;99.90;;;;;;5047522;28;20310;-73
2022/11/04 10:18:53;;;;;;;4.83;0.40;;;11.30;99.90;;;;;;5032739;28;20040;-73
2022/11/04 10:21:36;;;;;;;3.40;0.40;;;11.40;99.90;;;;;;5032842;28;20688;-73
2022/11/04 10:24:06;;;;;;;3.67;0.53;;;11.40;99.90;;;;;;5032508;28;20635;-73
2022/11/04 10:26:32;;;;;;;4.30;0.50;;;11.50;99.90;;;;;;5049635;28;20299;-73
2022/11/04 10:29:04;;;;;;;3.97;0.30;;;11.40;99.90;;;;;;5032614;28;20384;-73
2022/11/04 10:31:30;;;;;;;1.97;0.30;;;11.50;99.90;;;;;;5032979;28;20439;-73
2022/11/04 10:34:14;;;;;;;4.50;0.40;;;11.60;99.90;;;;;;5015663;28;20821;-73
2022/11/04 10:36:40;;;;;;;7.30;0.63;;;11.70;99.90;;;;;;5032711;28;20848;-73
2022/11/04 10:39:20;;;;;;;6.27;0.70;;;11.80;99.90;;;;;;5032885;28;20298;-73
2022/11/04 10:41:46;;;;;;;3.60;0.53;;;11.90;99.90;;;;;;5031831;28;20290;-73
2022/11/04 10:44:15;;;;;;;5.07;0.77;;;11.80;99.90;;;;;;5032716;28;20275;-73
2022/11/04 10:46:58;;;;;;;6.20;0.53;;;11.80;99.90;;;;;;5048731;28;20853;-73
2022/11/04 10:49:46;;;;;;;5.33;0.50;;;11.70;99.90;;;;;;5049275;28;20337;-72
2022/11/04 10:52:12;;;;;;;3.60;0.60;;;11.60;99.90;;;;;;5032372;28;20324;-73
2022/11/04 10:54:43;;;;;;;5.37;0.60;;;11.50;99.90;;;;;;5046680;28;20311;-74
2022/11/04 10:57:25;;;;;;;2.27;0.30;;;11.40;99.90;;;;;;5049511;28;20785;-73
2022/11/04 10:59:59;;;;;;;5.17;0.83;;;11.40;99.90;;;;;;5030827;28;20277;-73
2022/11/04 11:02:36;;;;;;;4.83;0.60;;;11.20;99.90;;;;;;5037738;28;20765;-73
2022/11/04 11:05:23;;;;;;;4.67;0.77;;;11.00;99.90;;;;;;5037219;28;20768;-73
2022/11/04 11:07:54;;;;;;;4.77;0.50;;;10.90;99.90;;;;;;5030630;28;20287;-73
2022/11/04 11:10:33;;;;;;;3.67;0.47;;;10.80;99.90;;;;;;5047542;28;20770;-73
2022/11/04 11:13:02;;;;;;;4.77;0.50;;;10.80;99.90;;;;;;5048593;28;20364;-73
2022/11/04 11:15:32;;;;;;;5.97;0.50;;;10.70;99.90;;;;;;5029570;28;20294;-73
2022/11/04 11:18:06;;;;;;;5.90;0.60;;;10.70;99.90;;;;;;5019058;28;20278;-73
2022/11/04 11:20:36;;;;;;;6.35;0.68;;;10.80;99.90;;;;;;5028681;28;20495;-73
2022/11/04 11:23:08;;;;;;;2.93;0.30;;;10.90;99.90;;;;;;5047636;28;20053;-73
2022/11/04 11:25:38;;;;;;;2.40;0.40;;;11.00;99.90;;;;;;5015526;28;20334;-73
2022/11/04 11:28:08;;;;;;;5.17;0.63;;;11.20;99.90;;;;;;5048827;28;20832;-73
2022/11/04 11:30:41;;;;;;;6.50;0.70;;;11.40;99.90;;;;;;5046310;28;20397;-73
2022/11/04 11:33:19;;;;;;;3.13;0.70;;;11.60;99.90;;;;;;5032115;28;20766;-73
2022/11/04 11:35:52;;;;;;;5.13;0.60;;;11.70;99.90;;;;;;5029097;28;20487;-73
2022/11/04 11:38:26;;;;;;;5.67;0.40;;;11.70;99.90;;;;;;5030650;28;20778;-73
2022/11/04 11:41:03;;;;;;;4.47;0.50;;;11.70;99.90;;;;;;5047412;28;20283;-73
2022/11/04 11:43:32;;;;;;;2.60;0.67;;;11.70;99.90;;;;;;5045999;28;20305;-73
2022/11/04 11:45:59;;;;;;;6.83;0.67;;;11.80;99.90;;;;;;5047371;28;20310;-73
2022/11/04 11:48:37;;;;;;;6.90;0.80;;;12.00;99.90;;;;;;5047775;28;20584;-72
2022/11/04 11:51:03;;;;;;;4.73;0.53;;;12.20;99.90;;;;;;5045994;28;20307;-71
2022/11/04 11:53:32;;;;;;;4.03;0.53;;;12.30;99.90;;;;;;5030126;28;20297;-72
2022/11/04 11:56:13;;;;;;;8.77;0.80;;;12.40;99.90;;;;;;5046346;28;20646;-72
2022/11/04 11:59:06;;;;;;;6.47;0.70;;;12.50;99.90;;;;;;5036554;28;20286;-72
2022/11/04 12:01:49;;;;;;;5.73;0.80;;;12.40;99.90;;;;;;5047579;28;20282;-71
2022/11/04 12:04:18;;;;;;;4.73;0.60;;;12.20;99.90;;;;;;5024451;28;20279;-74
2022/11/04 12:06:56;;;;;;;5.93;1.10;;;12.10;99.90;;;;;;5048282;28;20337;-74
2022/11/04 12:10:01;;;;;;;7.23;0.67;;;12.10;99.90;;;;;;5033999;28;20685;-73
2022/11/04 12:12:47;;;;;;;7.03;0.83;;;12.10;99.90;;;;;;5048722;28;20370;-73
2022/11/04 12:15:28;;;;;;;5.40;1.17;;;12.10;99.90;;;;;;5048278;28;20287;-73
2022/11/04 12:18:28;;;;;;;4.30;0.53;;;12.10;99.90;;;;;;5030630;28;20316;-74
2022/11/04 12:21:12;;;;;;;4.90;0.70;;;12.10;99.90;;;;;;5047935;28;20292;-74
2022/11/04 12:23:49;;;;;;;8.83;0.70;;;12.10;99.90;;;;;;5031684;28;20310;-74
2022/11/04 12:26:30;;;;;;;7.57;0.57;;;12.10;99.90;;;;;;5054740;28;20329;-74
2022/11/04 12:29:28;;;;;;;3.90;0.50;;;12.00;99.90;;;;;;5047405;28;20283;-73
2022/11/04 12:32:09;;;;;;;5.87;1.00;;;12.10;99.90;;;;;;5047179;28;20805;-73
2022/11/04 12:34:55;;;;;;;5.43;0.73;;;12.20;99.90;;;;;;5047127;28;20700;-73
2022/11/04 12:37:42;;;;;;;6.40;1.03;;;12.20;99.90;;;;;;5047478;28;20279;-73
2022/11/04 12:40:23;;;;;;;4.93;0.57;;;12.30;99.90;;;;;;5047115;28;20279;-74
2022/11/04 12:43:25;;;;;;;6.87;0.50;;;12.30;99.90;;;;;;5030502;28;20275;-73
2022/11/04 12:45:59;;;;;;;5.43;0.70;;;12.30;99.90;;;;;;5000619;28;20295;-73
2022/11/04 12:48:28;;;;;;;6.63;0.60;;;12.30;99.90;;;;;;5030648;28;20283;-73
2022/11/04 12:51:12;;;;;;;9.27;1.10;;;12.30;99.90;;;;;;5028620;28;20041;-74
2022/11/04 12:54:07;;;;;;;4.40;1.00;;;12.40;99.90;;;;;;5046503;28;20287;-73
2022/11/04 12:56:38;;;;;;;7.13;0.90;;;12.40;99.90;;;;;;5044597;28;20290;-73
2022/11/04 12:59:31;;;;;;;8.90;0.60;;;12.40;99.90;;;;;;5030493;28;20297;-73
2022/11/04 13:02:06;;;;;;;5.53;0.70;;;12.50;99.90;;;;;;5037944;28;20821;-73
2022/11/04 13:04:46;;;;;;;7.57;1.17;;;12.60;99.90;;;;;;5049191;28;20348;-73
2022/11/04 13:07:28;;;;;;;8.57;0.70;;;12.70;99.90;;;;;;5046955;28;20540;-73
2022/11/04 13:10:03;;;;;;;8.07;0.57;;;12.70;99.90;;;;;;5033946;28;20282;-73
2022/11/04 13:12:36;;;;;;;6.38;0.55;;;12.80;99.70;;;;;;5044729;28;20632;-73
2022/11/04 13:15:22;;;;;;;5.57;0.57;;;12.80;99.90;;;;;;5045237;28;20564;-73
2022/11/04 13:17:58;;;;;;;5.50;0.40;;;12.80;99.80;;;;;;5030363;28;21033;-73
2022/11/04 13:20:49;;;;;;;5.60;0.60;;;12.70;94.60;;;;;;5034386;28;20291;-73
2022/11/04 13:23:35;;;;;;;7.70;1.13;;;12.70;96.20;;;;;;5025802;28;20291;-73
2022/11/04 13:26:04;;;;;;;11.40;1.00;;;12.60;97.20;;;;;;5034004;28;20302;-73
2022/11/04 13:28:30;;;;;;;5.33;0.80;;;12.60;96.60;;;;;;5016373;28;20362;-73
2022/11/04 13:31:11;;;;;;;7.00;0.70;;;12.50;97.00;;;;;;5016900;28;20286;-73
2022/11/04 13:34:26;;;;;;;10.63;1.57;;;12.40;97.80;;;;;;5033375;28;20357;-73
2022/11/04 13:37:24;;;;;;;8.00;0.60;;;12.20;97.40;;;;;;5015889;28;20283;-73
2022/11/04 13:39:55;;;;;;;8.93;1.07;;;12.10;97.60;;;;;;5033794;28;20281;-73
2022/11/04 13:42:46;;;;;;;6.87;0.50;;;12.00;98.60;;;;;;5034305;28;20693;-73
2022/11/04 13:45:18;;;;;;;4.43;0.60;;;12.00;99.90;;;;;;5049371;28;20306;-73
2022/11/04 13:47:52;;;;;;;9.37;1.70;;;12.00;99.90;;;;;;5050046;28;20275;-73
2022/11/04 13:50:30;;;;;;;9.07;1.67;;;12.00;99.90;;;;;;5050196;28;20792;-73
2022/11/04 13:52:56;;;;;;;6.77;0.70;;;12.00;99.90;;;;;;5047843;28;20301;-74